Time;durP1;ratioP1;P1;durP2;ratioP2;P2;SDS_P1;SDS_P2;PMS_P1;PMS_P2;Temp;Humidity;BMP_temperature;BMP_pressure;BME280_temperature;BME280_humidity;BME280_pressure;Samples;Min_cycle;Max_cycle;Signal;HPM_P1;HPM_P2
2021/10/28 00:14:35;;;;;;;35.00;16.20;;;7.50;97.70;;;;;;5023226;28;20490;-74
2021/10/28 00:17:08;;;;;;;34.90;18.80;;;7.50;97.30;;;;;;5032071;28;20918;-72
2021/10/28 00:19:34;;;;;;;31.27;17.87;;;7.50;97.10;;;;;;5027056;28;20263;-73
2021/10/28 00:22:01;;;;;;;38.33;18.70;;;7.40;97.10;;;;;;5033688;28;20479;-72
2021/10/28 00:24:27;;;;;;;33.57;17.13;;;7.30;97.10;;;;;;5035232;28;20212;-74
2021/10/28 00:26:53;;;;;;;34.93;16.80;;;7.40;97.40;;;;;;5037156;28;20424;-76
2021/10/28 00:29:23;;;;;;;34.63;17.60;;;7.40;97.40;;;;;;5036873;28;20700;-75
2021/10/28 00:31:48;;;;;;;38.73;17.93;;;7.40;97.50;;;;;;5036382;28;20494;-74
2021/10/28 00:34:16;;;;;;;35.57;18.57;;;7.40;97.50;;;;;;5035671;28;20949;-72
2021/10/28 00:36:47;;;;;;;38.20;18.47;;;7.40;97.50;;;;;;5033643;28;20181;-75
2021/10/28 00:39:13;;;;;;;37.23;18.00;;;7.30;97.40;;;;;;5031886;28;20910;-73
2021/10/28 00:41:39;;;;;;;47.60;19.97;;;7.30;97.50;;;;;;5032198;28;20778;-73
2021/10/28 00:44:07;;;;;;;35.37;16.43;;;7.30;97.70;;;;;;5031131;28;20450;-73
2021/10/28 00:46:35;;;;;;;36.00;17.10;;;7.30;97.70;;;;;;5031549;28;20420;-75
2021/10/28 00:49:03;;;;;;;31.63;16.20;;;7.40;97.50;;;;;;5031143;28;20424;-77
2021/10/28 00:51:30;;;;;;;34.10;16.80;;;7.30;97.40;;;;;;5022541;28;20505;-74
2021/10/28 00:53:57;;;;;;;40.03;18.53;;;7.40;97.40;;;;;;5030620;28;20476;-75
2021/10/28 00:56:25;;;;;;;48.67;22.60;;;7.50;97.40;;;;;;5031481;28;20420;-75
2021/10/28 00:58:51;;;;;;;46.37;22.27;;;7.40;97.20;;;;;;5031380;28;20430;-76
2021/10/28 01:01:17;;;;;;;38.53;18.63;;;7.40;97.20;;;;;;5032603;28;20957;-75
2021/10/28 01:03:44;;;;;;;43.03;22.13;;;7.30;97.20;;;;;;5031850;28;20490;-76
2021/10/28 01:06:12;;;;;;;39.13;17.83;;;7.20;97.20;;;;;;5032371;28;20928;-77
2021/10/28 01:08:45;;;;;;;38.50;18.70;;;7.30;97.40;;;;;;5033150;28;20417;-77
2021/10/28 01:11:12;;;;;;;38.57;19.93;;;7.30;97.40;;;;;;5032269;28;20424;-75
2021/10/28 01:13:39;;;;;;;38.60;19.30;;;7.30;97.40;;;;;;5031503;28;20467;-74
2021/10/28 01:16:06;;;;;;;46.23;21.67;;;7.20;97.40;;;;;;5030780;28;20489;-75
2021/10/28 01:18:35;;;;;;;44.50;21.50;;;7.20;97.50;;;;;;5035436;28;20416;-75
2021/10/28 01:21:03;;;;;;;51.13;23.33;;;7.20;97.60;;;;;;5034821;28;20424;-74
2021/10/28 01:23:30;;;;;;;44.73;22.60;;;7.20;97.70;;;;;;5025956;28;20881;-75
2021/10/28 01:26:00;;;;;;;49.43;22.83;;;7.30;97.70;;;;;;5033056;28;20419;-74
2021/10/28 01:28:29;;;;;;;48.50;21.60;;;7.20;97.70;;;;;;5032798;28;20415;-75
2021/10/28 01:30:58;;;;;;;44.03;19.90;;;7.20;97.60;;;;;;5032775;28;20519;-73
2021/10/28 01:33:25;;;;;;;54.73;22.53;;;7.10;97.60;;;;;;5033743;28;20483;-75
2021/10/28 01:35:51;;;;;;;43.67;19.07;;;7.20;97.60;;;;;;5034053;28;20416;-74
2021/10/28 01:38:18;;;;;;;41.73;20.00;;;7.20;97.50;;;;;;5032642;28;20451;-75
2021/10/28 01:40:56;;;;;;;42.20;22.50;;;7.20;97.20;;;;;;5031379;28;20424;-75
2021/10/28 01:43:24;;;;;;;39.93;21.47;;;7.10;96.70;;;;;;5032608;28;20440;-74
2021/10/28 01:45:50;;;;;;;43.00;19.43;;;7.00;96.60;;;;;;5031623;28;20772;-75
2021/10/28 01:48:18;;;;;;;40.23;19.80;;;7.00;96.70;;;;;;5032207;28;20423;-74
2021/10/28 01:50:44;;;;;;;45.10;20.67;;;7.00;96.80;;;;;;5032294;28;20942;-74
2021/10/28 01:53:11;;;;;;;41.20;21.20;;;7.00;96.90;;;;;;5032300;28;20479;-75
2021/10/28 01:55:36;;;;;;;46.27;21.63;;;6.90;96.90;;;;;;5033336;28;20420;-74
2021/10/28 01:58:02;;;;;;;48.70;23.53;;;6.80;97.10;;;;;;5039484;28;20946;-75
2021/10/28 02:00:28;;;;;;;45.47;22.43;;;6.80;97.30;;;;;;5037936;28;20420;-75
2021/10/28 02:02:55;;;;;;;44.30;21.30;;;6.80;97.50;;;;;;5039644;28;20452;-75
2021/10/28 02:05:23;;;;;;;59.53;25.40;;;6.70;97.60;;;;;;5041067;28;20848;-74
2021/10/28 02:07:50;;;;;;;54.93;24.47;;;6.70;97.80;;;;;;5035935;28;20447;-74
2021/10/28 02:10:18;;;;;;;58.03;27.00;;;6.60;98.00;;;;;;5034228;28;20431;-75
2021/10/28 02:12:46;;;;;;;54.03;24.23;;;6.50;98.30;;;;;;5035736;28;20460;-73
2021/10/28 02:15:13;;;;;;;50.00;23.37;;;6.40;98.50;;;;;;5037760;28;20419;-74
2021/10/28 02:17:40;;;;;;;58.53;27.07;;;6.30;98.60;;;;;;5040954;28;20507;-74
2021/10/28 02:20:11;;;;;;;52.40;22.77;;;6.30;98.90;;;;;;5040299;28;20420;-75
2021/10/28 02:22:38;;;;;;;54.63;23.90;;;6.20;99.00;;;;;;5036225;28;20431;-74
2021/10/28 02:25:05;;;;;;;57.93;25.27;;;6.20;99.00;;;;;;5036296;28;20432;-73
2021/10/28 02:27:31;;;;;;;49.00;22.20;;;6.20;99.10;;;;;;5036836;28;20518;-74
2021/10/28 02:29:57;;;;;;;56.43;26.30;;;6.20;99.40;;;;;;5036011;28;20836;-75
2021/10/28 02:32:23;;;;;;;49.20;24.17;;;6.20;99.40;;;;;;5035007;28;20416;-74
2021/10/28 02:34:50;;;;;;;48.43;24.73;;;6.10;99.50;;;;;;5034305;28;20451;-75
2021/10/28 02:37:16;;;;;;;63.20;27.00;;;6.20;99.70;;;;;;5034707;28;20459;-75
2021/10/28 02:39:41;;;;;;;51.30;23.40;;;6.10;99.60;;;;;;5033140;28;21198;-75
2021/10/28 02:42:07;;;;;;;54.50;26.77;;;6.10;99.70;;;;;;5034526;28;20230;-75
2021/10/28 02:44:34;;;;;;;44.40;24.63;;;6.10;99.70;;;;;;5034525;28;20439;-75
2021/10/28 02:46:59;;;;;;;42.23;22.80;;;6.10;99.80;;;;;;5034688;28;20239;-74
2021/10/28 02:49:26;;;;;;;54.13;25.73;;;6.10;99.80;;;;;;5034093;28;20416;-75
2021/10/28 02:51:52;;;;;;;54.43;25.10;;;6.10;99.90;;;;;;5034888;28;20181;-75
2021/10/28 02:54:20;;;;;;;50.73;23.77;;;6.10;99.90;;;;;;5034063;28;20471;-74
2021/10/28 02:56:46;;;;;;;47.37;22.13;;;6.10;99.90;;;;;;5034188;28;20462;-75
2021/10/28 02:59:13;;;;;;;45.30;22.03;;;6.10;99.90;;;;;;5034331;28;20423;-75
2021/10/28 03:01:42;;;;;;;50.63;23.20;;;6.10;99.90;;;;;;5034978;28;20430;-76
2021/10/28 03:04:11;;;;;;;46.20;22.10;;;6.10;99.90;;;;;;5033724;28;20547;-77
2021/10/28 03:06:38;;;;;;;41.83;21.30;;;6.00;99.90;;;;;;5033259;28;20482;-75
2021/10/28 03:09:04;;;;;;;49.07;24.17;;;6.00;99.90;;;;;;5033758;28;20435;-75
2021/10/28 03:11:30;;;;;;;42.67;20.80;;;6.00;99.90;;;;;;5034125;28;20420;-74
2021/10/28 03:13:56;;;;;;;43.03;21.17;;;6.00;99.90;;;;;;5033858;28;20506;-75
2021/10/28 03:16:42;;;;;;;43.37;20.97;;;6.00;99.90;;;;;;5030902;28;20455;-75
2021/10/28 03:27:11;;;;;;;39.90;20.17;;;6.00;99.70;;;;;;5034720;28;20431;-75
2021/10/28 03:29:37;;;;;;;45.20;22.03;;;5.90;99.70;;;;;;5034270;28;20745;-75
2021/10/28 03:32:03;;;;;;;48.17;21.47;;;5.90;99.70;;;;;;5033849;28;20185;-74
2021/10/28 03:34:29;;;;;;;41.57;21.70;;;5.90;99.70;;;;;;5029874;28;20656;-74
2021/10/28 03:53:28;;;;;;;47.23;21.10;;;5.90;99.50;;;;;;5008370;28;20563;-76
2021/10/28 04:30:23;;;;;;;35.53;18.13;;;5.80;98.90;;;;;;5025981;28;20432;-74
2021/10/28 04:32:50;;;;;;;38.83;19.97;;;5.80;99.00;;;;;;5032203;28;20981;-75
2021/10/28 04:35:17;;;;;;;41.63;19.90;;;5.80;98.90;;;;;;5031683;28;20987;-74
2021/10/28 04:37:45;;;;;;;36.70;17.67;;;5.80;98.90;;;;;;5032422;28;20431;-72
2021/10/28 04:40:12;;;;;;;48.60;23.13;;;5.80;98.80;;;;;;5030329;28;20436;-74
2021/10/28 04:42:38;;;;;;;37.73;18.23;;;5.70;98.70;;;;;;5032079;28;20927;-75
2021/10/28 04:45:04;;;;;;;41.60;19.17;;;5.70;98.70;;;;;;5032405;28;20412;-75
2021/10/28 04:47:30;;;;;;;32.47;16.70;;;5.70;98.70;;;;;;5032584;28;20420;-75
2021/10/28 04:49:56;;;;;;;38.67;19.33;;;5.70;98.70;;;;;;5032274;28;20780;-75
2021/10/28 04:52:22;;;;;;;40.50;17.40;;;5.70;98.60;;;;;;5032702;28;20458;-75
2021/10/28 04:54:49;;;;;;;35.93;18.73;;;5.70;98.60;;;;;;5031268;28;20475;-74
2021/10/28 04:57:15;;;;;;;42.37;20.07;;;5.70;98.60;;;;;;5032652;28;20412;-75
2021/10/28 04:59:41;;;;;;;38.33;19.03;;;5.70;98.60;;;;;;5032516;28;20440;-75
2021/10/28 05:02:07;;;;;;;40.67;18.47;;;5.70;98.70;;;;;;5032939;28;20427;-75
2021/10/28 05:04:33;;;;;;;36.27;17.30;;;5.70;98.80;;;;;;5032137;28;20534;-76
2021/10/28 05:06:59;;;;;;;45.00;19.50;;;5.80;98.70;;;;;;5032321;28;20533;-73
2021/10/28 05:09:32;;;;;;;39.33;18.00;;;5.70;98.60;;;;;;5032097;28;20186;-76
2021/10/28 05:11:59;;;;;;;36.53;18.23;;;5.70;98.50;;;;;;5031315;28;20189;-78
2021/10/28 05:14:25;;;;;;;33.40;17.10;;;5.70;98.50;;;;;;5033127;28;20517;-76
2021/10/28 05:16:56;;;;;;;39.07;18.13;;;5.70;98.60;;;;;;5033220;28;20960;-76
2021/10/28 05:19:23;;;;;;;44.10;21.40;;;5.80;98.60;;;;;;5034207;28;20840;-76
2021/10/28 05:21:48;;;;;;;39.70;19.13;;;5.80;98.50;;;;;;5045029;28;20419;-77
2021/10/28 05:24:14;;;;;;;43.37;19.97;;;5.80;98.50;;;;;;5046404;28;20536;-75
2021/10/28 05:26:40;;;;;;;46.60;19.37;;;5.80;98.50;;;;;;5046362;28;20224;-76
2021/10/28 05:29:06;;;;;;;47.13;23.80;;;5.90;98.40;;;;;;5046858;28;20185;-77
2021/10/28 05:31:32;;;;;;;81.90;35.87;;;5.90;98.30;;;;;;5046020;28;20220;-77
2021/10/28 05:33:58;;;;;;;63.13;26.37;;;5.90;98.30;;;;;;5044833;28;20471;-75
2021/10/28 05:36:23;;;;;;;38.23;18.47;;;5.90;98.10;;;;;;5043748;28;20440;-76
2021/10/28 05:38:49;;;;;;;36.10;18.57;;;5.90;98.10;;;;;;5037620;28;20551;-75
2021/10/28 05:41:15;;;;;;;44.77;20.40;;;6.00;98.10;;;;;;5038296;28;20258;-76
2021/10/28 05:43:40;;;;;;;37.57;20.17;;;6.00;98.10;;;;;;5037989;28;20617;-76
2021/10/28 05:46:06;;;;;;;43.50;21.60;;;6.00;98.00;;;;;;5038947;28;20189;-75
2021/10/28 05:48:32;;;;;;;47.57;20.00;;;6.00;97.80;;;;;;5037478;28;20191;-76
2021/10/28 05:51:00;;;;;;;39.23;18.00;;;6.00;97.70;;;;;;5039738;28;20662;-75
2021/10/28 05:53:25;;;;;;;31.40;16.77;;;6.00;97.50;;;;;;5037118;28;20299;-76
2021/10/28 05:55:51;;;;;;;33.80;18.63;;;6.00;97.40;;;;;;5036461;28;20471;-75
2021/10/28 05:58:17;;;;;;;43.90;20.07;;;6.00;97.20;;;;;;5038026;28;20200;-75
2021/10/28 06:00:43;;;;;;;38.20;18.10;;;5.90;97.10;;;;;;5038274;28;20424;-76
2021/10/28 06:03:10;;;;;;;39.90;19.50;;;5.90;97.10;;;;;;5041077;28;20547;-75
2021/10/28 06:05:36;;;;;;;34.30;17.57;;;5.80;97.10;;;;;;5043872;28;20851;-76
2021/10/28 06:08:02;;;;;;;39.80;19.17;;;5.80;97.20;;;;;;5042132;28;20428;-75
2021/10/28 06:10:28;;;;;;;43.53;20.10;;;5.90;97.20;;;;;;5038560;28;20216;-77
2021/10/28 06:12:58;;;;;;;41.70;18.93;;;5.80;97.10;;;;;;5035241;28;20509;-75
2021/10/28 06:15:24;;;;;;;44.20;19.70;;;5.80;97.10;;;;;;5026790;28;20185;-77
2021/10/28 06:20:39;;;;;;;46.60;21.10;;;5.70;97.10;;;;;;5019172;28;20423;-73
2021/10/28 06:23:05;;;;;;;41.67;20.47;;;5.70;97.30;;;;;;5035814;28;20448;-73
2021/10/28 06:25:32;;;;;;;43.87;20.17;;;5.70;97.40;;;;;;5034735;28;20431;-74
2021/10/28 06:27:57;;;;;;;43.37;19.70;;;5.70;97.50;;;;;;5035722;28;20193;-74
2021/10/28 06:30:23;;;;;;;50.83;22.07;;;5.70;97.80;;;;;;5034854;28;20838;-73
2021/10/28 06:32:55;;;;;;;42.50;20.47;;;5.80;98.00;;;;;;5035539;28;20177;-74
2021/10/28 06:35:21;;;;;;;46.63;19.40;;;5.80;98.20;;;;;;5036162;28;20465;-77
2021/10/28 06:37:49;;;;;;;38.77;19.13;;;5.90;98.30;;;;;;5036960;28;20443;-77
2021/10/28 06:40:18;;;;;;;39.20;19.70;;;6.00;98.20;;;;;;5037574;28;20431;-76
2021/10/28 06:42:45;;;;;;;35.03;17.33;;;6.10;98.20;;;;;;5038765;28;20431;-75
2021/10/28 06:45:11;;;;;;;34.57;16.70;;;6.20;98.20;;;;;;5037839;28;20424;-77
2021/10/28 06:47:37;;;;;;;37.57;16.60;;;6.30;98.10;;;;;;5038072;28;20522;-77
2021/10/28 06:50:11;;;;;;;36.10;18.40;;;6.30;97.90;;;;;;5038648;28;20486;-75
2021/10/28 06:55:37;;;;;;;32.83;16.93;;;6.50;97.60;;;;;;5037007;28;20431;-79
2021/10/28 07:03:36;;;;;;;36.13;18.70;;;6.70;97.30;;;;;;5033655;28;20447;-80
2021/10/28 07:06:15;;;;;;;37.83;18.27;;;6.70;97.00;;;;;;5037241;28;20424;-80
2021/10/28 07:08:44;;;;;;;33.43;17.77;;;6.70;96.80;;;;;;5036095;28;20807;-78
2021/10/28 07:11:18;;;;;;;36.60;16.63;;;6.60;96.40;;;;;;5043433;28;20455;-77
2021/10/28 07:13:47;;;;;;;34.10;16.93;;;6.70;96.10;;;;;;5041794;28;20529;-77
2021/10/28 07:18:49;;;;;;;27.70;15.73;;;6.80;95.60;;;;;;5031212;28;20428;-78
2021/10/28 07:21:34;;;;;;;31.83;16.50;;;6.80;95.40;;;;;;5037310;28;20811;-79
2021/10/28 07:24:23;;;;;;;35.93;17.47;;;6.80;95.10;;;;;;5036109;28;20451;-77
2021/10/28 07:39:59;;;;;;;35.90;18.50;;;6.30;95.60;;;;;;5036786;28;20443;-81
2021/10/28 08:31:27;;;;;;;35.80;16.83;;;7.00;95.80;;;;;;5026254;28;20423;-78
2021/10/28 08:33:53;;;;;;;36.73;16.20;;;7.10;95.80;;;;;;5037759;28;20471;-77
2021/10/28 08:36:25;;;;;;;33.20;17.10;;;7.10;95.60;;;;;;5035164;28;20477;-77
2021/10/28 08:38:51;;;;;;;39.20;20.73;;;7.20;95.50;;;;;;5035111;28;20497;-77
2021/10/28 08:41:20;;;;;;;32.07;17.40;;;7.30;95.40;;;;;;5034966;28;20427;-78
2021/10/28 08:43:46;;;;;;;29.07;17.00;;;7.40;95.30;;;;;;5035499;28;20474;-75
2021/10/28 08:46:14;;;;;;;53.20;26.27;;;7.40;95.20;;;;;;5037080;28;20500;-77
2021/10/28 08:48:44;;;;;;;35.43;19.00;;;7.50;95.20;;;;;;5035257;28;20427;-78
2021/10/28 08:51:19;;;;;;;33.60;17.10;;;7.60;95.00;;;;;;5034625;28;20419;-78
2021/10/28 09:32:03;;;;;;;92.63;22.43;;;9.60;92.40;;;;;;5028845;28;20763;-76
2021/10/28 09:34:52;;;;;;;38.57;17.50;;;9.80;92.30;;;;;;5030263;28;20467;-76
2021/10/28 09:51:47;;;;;;;35.93;18.50;;;10.50;90.40;;;;;;5026046;28;20526;-78
2021/10/28 09:59:35;;;;;;;35.43;15.57;;;10.90;89.60;;;;;;5025115;28;20546;-76
2021/10/28 10:02:13;;;;;;;35.47;18.20;;;11.10;89.50;;;;;;5033658;28;20427;-76
2021/10/28 10:04:44;;;;;;;34.43;16.07;;;11.20;89.00;;;;;;5024972;28;20439;-77
2021/10/28 10:07:16;;;;;;;32.53;16.97;;;11.30;89.00;;;;;;5031968;28;20462;-76
2021/10/28 10:09:42;;;;;;;35.10;18.30;;;11.40;88.00;;;;;;5032545;28;20419;-77
2021/10/28 10:12:09;;;;;;;33.33;16.27;;;11.60;87.60;;;;;;5033712;28;20482;-75
2021/10/28 10:14:37;;;;;;;34.87;17.70;;;11.70;87.00;;;;;;5031648;28;20456;-78
2021/10/28 10:17:07;;;;;;;36.37;16.93;;;12.00;85.70;;;;;;5033602;28;20780;-77
2021/10/28 10:19:46;;;;;;;27.97;14.73;;;12.30;85.30;;;;;;5027911;28;20523;-77
2021/10/28 13:48:35;;;;;;;24.33;11.77;;;17.70;63.40;;;;;;5032033;28;20423;-78
2021/10/28 13:51:31;;;;;;;23.30;10.83;;;17.50;64.50;;;;;;5034034;28;20437;-78
2021/10/28 14:16:18;;;;;;;21.60;11.03;;;17.50;65.40;;;;;;5036536;28;20446;-77
2021/10/28 15:36:28;;;;;;;12.80;7.80;;;15.30;75.80;;;;;;5044125;28;20429;-80
2021/10/28 15:39:26;;;;;;;15.97;8.53;;;15.20;76.40;;;;;;5043144;28;20444;-80
2021/10/28 16:21:50;;;;;;;18.83;9.63;;;12.90;86.20;;;;;;5030232;28;20440;-74
2021/10/28 16:24:20;;;;;;;15.13;9.27;;;12.80;86.30;;;;;;5032233;28;20549;-75
2021/10/28 16:26:48;;;;;;;14.60;9.40;;;12.70;86.80;;;;;;5032801;28;20416;-77
2021/10/28 16:29:14;;;;;;;18.80;10.37;;;12.60;86.80;;;;;;5032504;28;20444;-76
2021/10/28 16:31:41;;;;;;;13.93;9.40;;;12.60;86.90;;;;;;5033990;28;20412;-77
2021/10/28 16:34:07;;;;;;;16.10;10.67;;;12.50;87.60;;;;;;5033357;28;20258;-76
2021/10/28 16:36:33;;;;;;;20.50;10.87;;;12.40;87.80;;;;;;5043291;28;20438;-74
2021/10/28 16:39:01;;;;;;;23.57;11.90;;;12.30;88.10;;;;;;5048647;28;20479;-75
2021/10/28 16:41:27;;;;;;;21.07;12.30;;;12.20;88.60;;;;;;5048956;28;20460;-74
2021/10/28 16:43:53;;;;;;;23.17;13.47;;;12.10;89.20;;;;;;5044862;28;20456;-76
2021/10/28 16:46:19;;;;;;;21.17;12.80;;;12.00;89.50;;;;;;5035006;28;20531;-79
2021/10/28 16:48:44;;;;;;;22.57;11.97;;;11.90;89.90;;;;;;5030033;28;20189;-76
2021/10/28 16:51:11;;;;;;;20.23;13.10;;;11.90;90.00;;;;;;5030452;28;20572;-76
2021/10/28 16:53:37;;;;;;;24.03;13.07;;;11.80;90.10;;;;;;5028913;28;20302;-76
2021/10/28 16:56:04;;;;;;;24.20;12.87;;;11.70;90.50;;;;;;5026228;28;20432;-73
2021/10/28 16:58:30;;;;;;;23.70;13.97;;;11.70;90.70;;;;;;5022663;28;20436;-76
2021/10/28 17:00:56;;;;;;;24.37;13.90;;;11.60;90.70;;;;;;5031772;28;20424;-76
2021/10/28 17:03:22;;;;;;;24.70;12.53;;;11.60;90.80;;;;;;5033857;28;20440;-74
2021/10/28 17:05:48;;;;;;;24.00;12.70;;;11.50;90.90;;;;;;5029753;28;20570;-75
2021/10/28 17:08:15;;;;;;;22.13;12.40;;;11.50;91.10;;;;;;5031117;28;20462;-76
2021/10/28 17:10:41;;;;;;;24.37;13.53;;;11.40;91.40;;;;;;5029784;28;20518;-73
2021/10/28 17:13:07;;;;;;;26.17;13.27;;;11.30;91.50;;;;;;5029074;28;20474;-75
2021/10/28 17:15:33;;;;;;;22.70;12.00;;;11.20;91.90;;;;;;5028788;28;20919;-76
2021/10/28 17:17:58;;;;;;;18.87;10.70;;;11.20;92.00;;;;;;5028179;28;20763;-76
2021/10/28 17:20:26;;;;;;;19.50;12.03;;;11.20;92.10;;;;;;5029705;28;20259;-75
2021/10/28 17:22:55;;;;;;;28.57;13.47;;;11.20;92.20;;;;;;5029511;28;20231;-73
2021/10/28 17:25:21;;;;;;;24.00;14.27;;;11.10;92.30;;;;;;5028710;28;20451;-75
2021/10/28 17:27:48;;;;;;;23.27;12.40;;;11.00;92.50;;;;;;5029214;28;20466;-75
2021/10/28 17:30:16;;;;;;;27.13;14.83;;;11.00;92.70;;;;;;5027345;28;20815;-75
2021/10/28 17:32:43;;;;;;;25.53;14.67;;;11.00;92.70;;;;;;5029523;28;21114;-77
2021/10/28 17:35:11;;;;;;;25.43;13.70;;;11.00;92.80;;;;;;5026426;28;20565;-76
2021/10/28 17:37:37;;;;;;;26.53;15.23;;;11.00;92.70;;;;;;5028473;28;21114;-77
2021/10/28 17:40:04;;;;;;;23.60;14.00;;;11.00;92.70;;;;;;5028508;28;20459;-76
2021/10/28 17:42:30;;;;;;;24.30;13.50;;;10.90;92.80;;;;;;5025161;28;20463;-76
2021/10/28 17:45:00;;;;;;;25.60;13.90;;;10.90;92.80;;;;;;5028414;28;20448;-75
2021/10/28 17:47:27;;;;;;;25.37;14.57;;;10.90;92.80;;;;;;5028190;28;20191;-75
2021/10/28 17:49:53;;;;;;;28.70;16.23;;;10.90;92.80;;;;;;5029386;28;20432;-75
2021/10/28 17:52:19;;;;;;;26.37;14.13;;;10.80;92.90;;;;;;5029168;28;20473;-75
2021/10/28 17:54:46;;;;;;;20.90;13.00;;;10.80;93.20;;;;;;5028060;28;20476;-76
2021/10/28 17:57:13;;;;;;;20.97;12.50;;;10.70;93.30;;;;;;5028760;28;20490;-76
2021/10/28 17:59:42;;;;;;;23.73;13.80;;;10.70;93.40;;;;;;5029129;28;20466;-74
2021/10/28 18:02:08;;;;;;;22.20;12.90;;;10.60;93.50;;;;;;5028735;28;20907;-75
2021/10/28 18:04:35;;;;;;;24.67;13.93;;;10.60;93.60;;;;;;5027766;28;21108;-75
2021/10/28 18:07:02;;;;;;;26.40;15.00;;;10.50;93.60;;;;;;5025973;28;20432;-75
2021/10/28 18:09:28;;;;;;;26.57;12.87;;;10.60;93.70;;;;;;5026952;28;20440;-75
2021/10/28 18:11:56;;;;;;;22.60;12.57;;;10.60;93.80;;;;;;5027286;28;21003;-76
2021/10/28 18:14:26;;;;;;;25.23;13.90;;;10.50;93.80;;;;;;5027057;28;21004;-74
2021/10/28 18:16:52;;;;;;;26.00;14.30;;;10.50;94.10;;;;;;5027435;28;20420;-75
2021/10/28 18:19:18;;;;;;;40.20;19.23;;;10.30;94.20;;;;;;5025410;28;20622;-76
2021/10/28 18:21:47;;;;;;;23.60;14.73;;;10.30;94.40;;;;;;5028075;28;20185;-75
2021/10/28 18:24:14;;;;;;;22.60;14.30;;;10.30;94.50;;;;;;5027215;28;20455;-73
2021/10/28 18:26:40;;;;;;;25.80;13.27;;;10.30;94.60;;;;;;5028092;28;20534;-75
2021/10/28 18:29:06;;;;;;;30.80;15.33;;;10.30;94.50;;;;;;5024718;28;20446;-75
2021/10/28 18:31:32;;;;;;;29.47;14.97;;;10.20;94.60;;;;;;5026492;28;20422;-74
2021/10/28 18:34:00;;;;;;;28.30;13.53;;;10.10;94.60;;;;;;5032978;28;20555;-76
2021/10/28 18:36:27;;;;;;;24.77;14.30;;;10.10;94.80;;;;;;5033308;28;20428;-75
2021/10/28 18:38:55;;;;;;;26.90;13.60;;;10.10;94.90;;;;;;5026099;28;20482;-74
2021/10/28 18:41:21;;;;;;;21.57;13.33;;;10.10;94.90;;;;;;5025231;28;20445;-75
2021/10/28 18:43:48;;;;;;;24.47;13.57;;;10.10;94.90;;;;;;5024382;28;20455;-75
2021/10/28 18:46:21;;;;;;;23.03;13.60;;;10.10;94.90;;;;;;5029462;28;20454;-73
2021/10/28 18:48:48;;;;;;;22.23;14.03;;;10.10;94.90;;;;;;5028961;28;20464;-75
2021/10/28 18:51:14;;;;;;;22.13;13.67;;;10.10;94.80;;;;;;5029661;28;20846;-74
2021/10/28 18:53:43;;;;;;;20.30;12.87;;;10.00;94.80;;;;;;5028904;28;20537;-73
2021/10/28 18:56:09;;;;;;;17.30;11.70;;;10.00;94.80;;;;;;5029553;28;20430;-73
2021/10/28 18:58:35;;;;;;;20.17;11.20;;;10.00;95.00;;;;;;5027300;28;20808;-74
2021/10/28 19:01:01;;;;;;;19.10;10.63;;;9.90;94.90;;;;;;5029133;28;20621;-77
2021/10/28 19:03:27;;;;;;;19.37;12.10;;;9.90;95.00;;;;;;5028421;28;20970;-76
2021/10/28 19:05:55;;;;;;;21.97;12.83;;;9.90;95.10;;;;;;5029397;28;20189;-76
2021/10/28 19:08:21;;;;;;;22.43;12.33;;;9.90;95.10;;;;;;5029671;28;20450;-75
2021/10/28 19:10:47;;;;;;;24.17;13.17;;;9.90;95.00;;;;;;5029444;28;20428;-73
2021/10/28 19:13:13;;;;;;;24.83;13.63;;;9.90;95.00;;;;;;5029303;28;20443;-74
2021/10/28 19:15:39;;;;;;;25.93;13.80;;;9.90;94.90;;;;;;5027432;28;20307;-75
2021/10/28 19:18:06;;;;;;;19.00;11.00;;;9.90;94.90;;;;;;5029220;28;20456;-75
2021/10/28 19:20:36;;;;;;;20.17;13.00;;;9.90;95.00;;;;;;5029852;28;20184;-73
2021/10/28 19:23:03;;;;;;;22.90;13.33;;;9.80;95.10;;;;;;5030148;28;20522;-74
2021/10/28 19:25:29;;;;;;;24.40;13.10;;;9.70;95.00;;;;;;5021091;28;20436;-75
2021/10/28 19:27:55;;;;;;;26.57;13.63;;;9.70;95.30;;;;;;5033304;28;20420;-75
2021/10/28 19:32:51;;;;;;;21.63;12.73;;;9.70;95.30;;;;;;5031932;28;20522;-74
2021/10/28 19:35:19;;;;;;;20.30;13.77;;;9.70;95.30;;;;;;5030669;28;20549;-73
2021/10/28 19:37:54;;;;;;;33.33;17.20;;;9.60;95.10;;;;;;5038660;28;20419;-73
2021/10/28 19:47:48;;;;;;;23.30;13.40;;;9.50;95.80;;;;;;5028452;28;20439;-75
2021/10/28 19:50:14;;;;;;;21.23;13.03;;;9.40;95.90;;;;;;5027634;28;20520;-75
2021/10/28 19:52:42;;;;;;;27.13;15.17;;;9.40;95.90;;;;;;5028775;28;20519;-73
2021/10/28 19:55:09;;;;;;;27.63;15.20;;;9.40;95.90;;;;;;5027854;28;20539;-75
2021/10/28 19:57:39;;;;;;;29.23;16.80;;;9.40;95.90;;;;;;5021181;28;20434;-74
2021/10/28 20:00:26;;;;;;;22.77;14.10;;;9.30;95.80;;;;;;5028631;28;20420;-75
2021/10/28 20:05:28;;;;;;;32.90;18.40;;;9.20;96.30;;;;;;5028047;28;20439;-76
2021/10/28 20:21:06;;;;;;;28.33;15.13;;;9.20;96.60;;;;;;5028398;28;20458;-75
2021/10/28 20:23:32;;;;;;;29.83;15.50;;;9.10;96.50;;;;;;5027740;28;20444;-74
2021/10/28 20:25:58;;;;;;;29.57;16.47;;;9.20;96.50;;;;;;5028004;28;20423;-73
2021/10/28 20:28:26;;;;;;;29.03;15.93;;;9.20;96.50;;;;;;5029739;28;20193;-73
2021/10/28 20:30:57;;;;;;;25.53;15.30;;;9.10;96.40;;;;;;5033043;28;20427;-74
2021/10/28 20:33:27;;;;;;;30.23;16.90;;;9.10;96.40;;;;;;5029745;28;20569;-73
2021/10/28 20:38:25;;;;;;;33.67;16.83;;;9.00;96.40;;;;;;5027796;28;21246;-73
2021/10/28 20:40:51;;;;;;;50.30;22.10;;;9.00;96.50;;;;;;5028437;28;20456;-75
2021/10/28 20:43:40;;;;;;;40.97;20.07;;;9.00;96.60;;;;;;5027670;28;20243;-76
2021/10/28 20:46:18;;;;;;;37.60;19.03;;;9.10;96.70;;;;;;5024028;28;20498;-73
2021/10/28 20:48:44;;;;;;;33.33;17.50;;;9.10;96.70;;;;;;5021553;28;20478;-72
2021/10/28 20:51:10;;;;;;;27.70;16.13;;;9.10;96.90;;;;;;5027466;28;20440;-71
2021/10/28 20:53:36;;;;;;;32.40;16.60;;;9.10;96.80;;;;;;5026417;28;20212;-73
2021/10/28 20:56:02;;;;;;;29.00;16.20;;;9.10;96.80;;;;;;5026435;28;20213;-72
2021/10/28 20:58:29;;;;;;;30.47;16.87;;;9.00;96.90;;;;;;5026862;28;20416;-73
2021/10/28 21:00:55;;;;;;;31.53;17.13;;;9.00;97.00;;;;;;5026949;28;20926;-72
2021/10/28 21:03:20;;;;;;;29.77;16.23;;;9.00;97.00;;;;;;5028088;28;20446;-77
2021/10/28 21:05:47;;;;;;;29.13;16.23;;;9.00;97.10;;;;;;5024917;28;20197;-76
2021/10/28 21:08:13;;;;;;;30.30;17.73;;;9.00;97.00;;;;;;5029233;28;20181;-78
2021/10/28 21:10:39;;;;;;;30.03;16.33;;;9.00;97.00;;;;;;5029568;28;20421;-77
2021/10/28 21:13:05;;;;;;;34.97;16.43;;;9.00;97.10;;;;;;5029014;28;20416;-77
2021/10/28 21:15:31;;;;;;;35.67;18.60;;;9.00;97.10;;;;;;5019294;28;20490;-73
2021/10/28 21:17:57;;;;;;;33.60;16.07;;;9.00;97.10;;;;;;5026589;28;20519;-74
2021/10/28 21:20:25;;;;;;;32.00;17.57;;;8.90;97.10;;;;;;5023093;28;20436;-74
2021/10/28 21:22:53;;;;;;;29.27;17.20;;;8.90;97.10;;;;;;5022561;28;20490;-71
2021/10/28 21:25:18;;;;;;;26.30;16.60;;;8.90;97.20;;;;;;5024555;28;20968;-75
2021/10/28 21:27:44;;;;;;;34.70;18.40;;;8.90;97.10;;;;;;5025557;28;20464;-75
2021/10/28 21:30:11;;;;;;;31.83;17.80;;;8.90;97.20;;;;;;5027468;28;20447;-73
2021/10/28 21:32:39;;;;;;;26.60;16.07;;;8.90;97.20;;;;;;5023527;28;20432;-73
2021/10/28 21:35:07;;;;;;;26.40;15.40;;;8.90;97.30;;;;;;5024675;28;20481;-72
2021/10/28 21:37:34;;;;;;;35.57;18.07;;;8.90;97.20;;;;;;5027930;28;20420;-74
2021/10/28 21:40:00;;;;;;;30.80;17.40;;;8.90;97.20;;;;;;5028679;28;20447;-73
2021/10/28 21:42:26;;;;;;;34.20;18.20;;;8.90;97.20;;;;;;5027257;28;20505;-74
2021/10/28 21:44:54;;;;;;;37.30;18.97;;;9.00;97.20;;;;;;5028352;28;20562;-71
2021/10/28 21:47:21;;;;;;;36.40;19.90;;;8.90;97.00;;;;;;5028321;28;20430;-74
2021/10/28 21:49:48;;;;;;;29.27;19.20;;;8.90;97.20;;;;;;5024488;28;20428;-73
2021/10/28 21:52:27;;;;;;;32.03;17.73;;;9.00;97.20;;;;;;5027026;28;20428;-75
2021/10/28 21:55:41;;;;;;;30.33;17.40;;;8.90;97.10;;;;;;5024681;28;20477;-73
2021/10/28 22:00:34;;;;;;;42.13;21.30;;;8.90;97.20;;;;;;5027062;28;20428;-74
2021/10/28 22:24:49;;;;;;;35.53;19.40;;;8.80;97.10;;;;;;5027353;28;20454;-72
2021/10/28 22:27:15;;;;;;;42.90;20.00;;;8.80;97.20;;;;;;5033172;28;21015;-72
2021/10/28 22:29:42;;;;;;;34.67;18.97;;;8.80;97.10;;;;;;5031362;28;20527;-73
2021/10/28 22:32:07;;;;;;;35.33;18.80;;;8.80;96.90;;;;;;5030977;28;21039;-72
2021/10/28 22:34:34;;;;;;;35.77;18.97;;;8.80;96.90;;;;;;5030246;28;20495;-73
2021/10/28 22:37:19;;;;;;;39.80;20.53;;;8.70;96.90;;;;;;5034425;28;20412;-72
2021/10/28 22:39:54;;;;;;;38.30;19.57;;;8.70;97.00;;;;;;5034817;28;20454;-74
2021/10/28 22:42:21;;;;;;;31.70;17.13;;;8.70;96.90;;;;;;5035595;28;20426;-73
2021/10/28 22:44:47;;;;;;;32.70;18.20;;;8.70;97.00;;;;;;5033264;28;20998;-72